createdAt,value
2022-10-13T00:00:58.903Z,13.55
2022-10-13T00:03:25.959Z,11.18
2022-10-13T00:05:52.941Z,15.80
2022-10-13T00:08:21.657Z,13.90
2022-10-13T00:10:50.703Z,12.88
2022-10-13T00:13:18.551Z,14.27
2022-10-13T00:15:46.841Z,12.80
2022-10-13T00:18:14.635Z,15.05
2022-10-13T00:20:47.335Z,15.32
2022-10-13T00:23:14.770Z,18.48
2022-10-13T00:25:43.532Z,13.35
2022-10-13T00:28:11.278Z,21.23
2022-10-13T00:30:38.703Z,19.42
2022-10-13T00:33:05.657Z,10.93
2022-10-13T00:35:46.862Z,14.27
2022-10-13T00:38:14.215Z,16.50
2022-10-13T00:40:45.184Z,15.25
2022-10-13T00:43:23.336Z,15.80
2022-10-13T00:45:50.752Z,17.45
2022-10-13T00:48:25.013Z,16.33
2022-10-13T00:50:52.809Z,16.52
2022-10-13T00:53:23.912Z,15.05
2022-10-13T00:55:52.540Z,14.15
2022-10-13T00:58:23.677Z,22.55
2022-10-13T01:00:52.705Z,14.68
2022-10-13T01:03:21.195Z,17.38
2022-10-13T01:05:50.001Z,12.35
2022-10-13T01:08:19.079Z,17.25
2022-10-13T01:10:55.585Z,14.82
2022-10-13T01:13:40.050Z,16.05
2022-10-13T01:16:19.359Z,17.83
2022-10-13T01:18:55.841Z,13.05
2022-10-13T01:21:39.119Z,13.93
2022-10-13T01:24:41.523Z,11.77
2022-10-13T01:27:27.601Z,12.98
2022-10-13T01:30:06.032Z,13.73
2022-10-13T01:32:51.093Z,25.98
2022-10-13T01:35:26.440Z,15.98
2022-10-13T01:38:06.944Z,15.38
2022-10-13T01:40:48.372Z,16.30
2022-10-13T01:43:29.482Z,17.20
2022-10-13T01:46:12.390Z,18.98
2022-10-13T01:48:42.690Z,24.30
2022-10-13T01:51:13.460Z,16.02
2022-10-13T01:53:42.500Z,18.27
2022-10-13T01:56:09.410Z,16.50
2022-10-13T01:58:37.864Z,16.60
2022-10-13T02:01:21.038Z,15.98
2022-10-13T02:03:59.889Z,18.02
2022-10-13T02:06:41.000Z,17.67
2022-10-13T02:09:41.880Z,13.50
2022-10-13T02:12:19.392Z,22.48
2022-10-13T02:14:48.263Z,16.25
2022-10-13T02:17:16.058Z,15.82
2022-10-13T02:19:43.445Z,16.20
2022-10-13T02:22:13.563Z,18.52
2022-10-13T02:24:40.753Z,29.92
2022-10-13T02:27:08.515Z,18.75
2022-10-13T02:29:48.084Z,21.58
2022-10-13T02:32:14.752Z,25.35
2022-10-13T02:34:41.394Z,16.48
2022-10-13T02:37:08.081Z,26.77
2022-10-13T02:39:35.070Z,17.20
2022-10-13T02:42:01.698Z,16.13
2022-10-13T02:44:28.374Z,24.80
2022-10-13T02:46:55.405Z,17.27
2022-10-13T02:49:22.058Z,22.92
2022-10-13T02:51:49.141Z,21.27
2022-10-13T02:54:16.236Z,21.13
2022-10-13T02:56:43.214Z,24.25
2022-10-13T02:59:10.355Z,21.90
2022-10-13T03:01:41.214Z,26.67
2022-10-13T03:04:09.159Z,20.52
2022-10-13T03:06:35.951Z,17.63
2022-10-13T03:09:03.892Z,23.83
2022-10-13T03:11:31.049Z,21.13
2022-10-13T03:13:57.881Z,21.58
2022-10-13T03:16:25.009Z,16.98
2022-10-13T03:18:51.977Z,24.48
2022-10-13T03:21:19.013Z,20.77
2022-10-13T03:23:46.051Z,23.85
2022-10-13T03:26:13.138Z,17.45
2022-10-13T03:28:41.048Z,18.63
2022-10-13T03:31:10.907Z,28.38
2022-10-13T03:36:05.929Z,26.30
2022-10-13T03:38:34.245Z,25.70
2022-10-13T03:41:13.059Z,22.70
2022-10-13T03:43:41.129Z,21.02
2022-10-13T03:46:10.550Z,24.25
2022-10-13T03:48:38.097Z,23.83
2022-10-13T03:51:10.138Z,30.15
2022-10-13T03:53:36.939Z,16.83
2022-10-13T03:56:05.147Z,20.05
2022-10-13T03:58:32.503Z,19.48
2022-10-13T04:01:04.745Z,24.70
2022-10-13T04:03:34.314Z,19.42
2022-10-13T04:06:06.015Z,16.45
2022-10-13T04:08:33.985Z,19.25
2022-10-13T04:11:04.166Z,20.90
2022-10-13T04:13:31.147Z,21.73
2022-10-13T04:16:03.319Z,22.75
2022-10-13T04:18:31.012Z,28.02
2022-10-13T04:20:57.718Z,19.73
2022-10-13T04:23:24.722Z,25.95
2022-10-13T04:25:51.476Z,24.77
2022-10-13T04:28:18.561Z,15.98
2022-10-13T04:30:49.233Z,19.27
2022-10-13T04:33:17.063Z,20.95
2022-10-13T04:35:44.916Z,29.77
2022-10-13T04:38:11.565Z,21.23
2022-10-13T04:40:38.310Z,22.33
2022-10-13T04:43:05.246Z,24.02
2022-10-13T04:45:31.885Z,29.33
2022-10-13T04:48:00.205Z,17.77
2022-10-13T04:50:27.231Z,24.73
2022-10-13T04:52:54.261Z,25.58
2022-10-13T04:55:20.941Z,25.33
2022-10-13T04:57:47.950Z,23.55
2022-10-13T05:00:14.820Z,21.05
2022-10-13T05:02:41.657Z,21.60
2022-10-13T05:05:10.033Z,22.35
2022-10-13T05:07:37.157Z,27.00
2022-10-13T05:10:04.591Z,22.73
2022-10-13T05:12:31.446Z,23.73
2022-10-13T05:14:58.870Z,19.08
2022-10-13T05:17:25.582Z,20.42
2022-10-13T05:19:52.642Z,20.67
2022-10-13T05:22:20.019Z,22.42
2022-10-13T05:24:47.153Z,28.52
2022-10-13T05:27:14.355Z,21.15
2022-10-13T05:29:41.407Z,22.13
2022-10-13T05:32:08.502Z,19.63
2022-10-13T05:34:35.362Z,21.95
2022-10-13T05:37:02.423Z,27.58
2022-10-13T05:39:29.397Z,21.23
2022-10-13T05:41:56.111Z,21.63
2022-10-13T05:44:24.242Z,21.20
2022-10-13T05:46:51.027Z,18.83
2022-10-13T05:49:18.097Z,27.08
2022-10-13T05:51:52.772Z,37.90
2022-10-13T05:54:22.897Z,15.60
2022-10-13T05:57:16.208Z,24.10
2022-10-13T05:59:49.843Z,24.02
2022-10-13T06:02:19.042Z,21.67
2022-10-13T06:04:52.079Z,23.27
2022-10-13T06:07:19.600Z,23.60
2022-10-13T06:09:46.752Z,21.10
2022-10-13T06:12:13.586Z,21.40
2022-10-13T06:14:40.633Z,19.45
2022-10-13T06:17:07.917Z,19.58
2022-10-13T06:19:34.814Z,20.92
2022-10-13T06:22:03.751Z,21.08
2022-10-13T06:24:30.944Z,20.55
2022-10-13T06:26:58.015Z,27.08
2022-10-13T06:29:25.021Z,18.40
2022-10-13T06:31:52.020Z,27.88
2022-10-13T06:34:19.038Z,13.73
2022-10-13T06:36:45.774Z,19.50
2022-10-13T06:39:13.091Z,14.57
2022-10-13T06:41:39.787Z,26.27
2022-10-13T06:44:06.856Z,15.65
2022-10-13T06:46:33.944Z,26.70
2022-10-13T06:49:00.943Z,22.08
2022-10-13T06:51:28.068Z,16.52
2022-10-13T06:53:56.729Z,19.08
2022-10-13T06:56:23.420Z,18.80
2022-10-13T06:58:50.080Z,22.48
2022-10-13T07:01:16.787Z,20.52
2022-10-13T07:03:43.489Z,15.05
2022-10-13T07:06:10.779Z,25.75
2022-10-13T07:08:37.454Z,20.33
2022-10-13T07:11:15.975Z,21.60
2022-10-13T07:13:46.409Z,24.77
2022-10-13T07:16:14.696Z,19.98
2022-10-13T07:18:41.372Z,16.90
2022-10-13T07:21:08.087Z,19.52
2022-10-13T07:23:34.723Z,18.67
2022-10-13T07:26:01.842Z,19.38
2022-10-13T07:28:28.610Z,20.38
2022-10-13T07:30:56.397Z,19.38
2022-10-13T07:33:23.040Z,25.40
2022-10-13T07:35:49.691Z,23.58
2022-10-13T07:38:16.478Z,26.00
2022-10-13T07:40:43.162Z,15.90
2022-10-13T07:43:10.023Z,20.63
2022-10-13T07:45:36.678Z,33.20
2022-10-13T07:48:03.456Z,20.52
2022-10-13T07:50:30.205Z,16.10
2022-10-13T07:52:56.872Z,17.30
2022-10-13T07:55:23.592Z,20.17
2022-10-13T07:57:50.282Z,13.65
2022-10-13T08:00:17.173Z,9.18
2022-10-13T08:02:43.864Z,12.30
2022-10-13T08:05:10.608Z,11.30
2022-10-13T08:07:39.207Z,12.73
2022-10-13T08:10:08.451Z,16.95
2022-10-13T08:12:36.531Z,14.95
2022-10-13T08:15:06.224Z,14.63
2022-10-13T08:17:33.578Z,14.20
2022-10-13T08:20:00.281Z,23.38
2022-10-13T08:22:28.371Z,11.55
2022-10-13T08:24:55.971Z,14.48
2022-10-13T08:27:32.836Z,13.32
2022-10-13T08:30:09.922Z,12.88
2022-10-13T08:32:36.604Z,13.98
2022-10-13T08:35:04.315Z,15.00
2022-10-13T08:37:31.097Z,11.40
2022-10-13T08:39:57.858Z,13.75
2022-10-13T08:42:24.560Z,19.77
2022-10-13T08:47:51.432Z,11.13
2022-10-13T08:50:21.446Z,15.32
2022-10-13T08:53:01.560Z,12.73
2022-10-13T08:55:36.714Z,14.63
2022-10-13T08:58:12.298Z,20.08
2022-10-13T09:00:39.055Z,14.85
2022-10-13T09:03:22.808Z,18.70
2022-10-13T09:06:07.150Z,10.30
2022-10-13T09:08:40.730Z,14.35
2022-10-13T09:11:10.221Z,11.80
2022-10-13T09:13:37.017Z,14.60
2022-10-13T09:16:03.836Z,20.08
2022-10-13T09:18:32.565Z,13.23
2022-10-13T09:21:10.462Z,20.05
2022-10-13T09:23:41.030Z,21.90
2022-10-13T09:26:15.733Z,20.17
2022-10-13T09:28:42.607Z,16.70
2022-10-13T09:31:13.237Z,9.63
2022-10-13T09:33:41.205Z,14.88
2022-10-13T09:36:16.012Z,18.67
2022-10-13T09:39:12.612Z,13.27
2022-10-13T09:41:40.716Z,12.93
2022-10-13T09:44:17.571Z,15.45
2022-10-13T09:46:51.525Z,12.88
2022-10-13T09:49:28.280Z,19.27
2022-10-13T09:52:12.018Z,13.55
2022-10-13T09:54:58.578Z,11.38
2022-10-13T09:57:51.497Z,19.77
2022-10-13T10:00:26.861Z,9.98
2022-10-13T10:03:22.221Z,16.60
2022-10-13T10:05:56.331Z,17.33
2022-10-13T10:09:07.614Z,17.33
2022-10-13T10:11:40.501Z,14.48
2022-10-13T10:14:28.779Z,23.25
2022-10-13T10:17:33.087Z,13.73
2022-10-13T10:20:21.668Z,17.48
2022-10-13T10:22:59.608Z,19.02
2022-10-13T10:25:34.156Z,13.63
2022-10-13T10:28:11.310Z,14.73
2022-10-13T10:30:48.298Z,13.82
2022-10-13T10:33:29.972Z,13.65
2022-10-13T10:36:07.349Z,15.07
2022-10-13T10:39:00.033Z,18.42
2022-10-13T10:41:41.333Z,22.27
2022-10-13T10:44:12.673Z,21.30
2022-10-13T10:46:47.035Z,16.60
2022-10-13T10:49:30.830Z,17.15
2022-10-13T10:51:59.735Z,17.85
2022-10-13T10:54:39.465Z,23.53
2022-10-13T10:59:55.358Z,16.67
2022-10-13T11:03:07.422Z,22.20
2022-10-13T11:06:12.125Z,12.73
2022-10-13T11:08:42.586Z,19.35
2022-10-13T11:11:39.845Z,15.52
2022-10-13T11:14:06.456Z,11.68
2022-10-13T11:16:34.750Z,16.98
2022-10-13T11:19:05.849Z,11.27
2022-10-13T11:22:12.563Z,15.65
2022-10-13T11:24:41.831Z,18.65
2022-10-13T11:27:09.037Z,12.07
2022-10-13T11:29:48.895Z,18.05
2022-10-13T11:32:30.492Z,15.93
2022-10-13T11:34:59.406Z,14.43
2022-10-13T11:38:06.744Z,19.15
2022-10-13T11:41:07.602Z,14.57
2022-10-13T11:43:59.983Z,18.58
2022-10-13T11:47:00.136Z,17.02
2022-10-13T11:49:54.385Z,24.27
2022-10-13T11:52:59.765Z,17.67
2022-10-13T11:55:53.424Z,16.23
2022-10-13T11:58:23.743Z,21.27
2022-10-13T12:01:03.071Z,17.75
2022-10-13T12:03:34.842Z,15.68
2022-10-13T12:06:07.708Z,17.83
2022-10-13T12:08:36.411Z,17.60
2022-10-13T12:11:07.478Z,21.95
2022-10-13T12:13:36.008Z,16.48
2022-10-13T12:16:08.381Z,15.80
2022-10-13T12:18:38.933Z,14.70
2022-10-13T12:21:16.331Z,15.95
2022-10-13T12:23:43.374Z,15.38
2022-10-13T12:26:19.625Z,20.27
2022-10-13T12:28:58.238Z,26.38
2022-10-13T12:31:47.082Z,16.55
2022-10-13T12:34:34.185Z,19.20
2022-10-13T12:37:33.255Z,23.88
2022-10-13T12:40:01.253Z,23.45
2022-10-13T12:42:34.681Z,18.63
2022-10-13T12:45:02.287Z,17.38
2022-10-13T12:47:41.113Z,19.25
2022-10-13T12:50:25.793Z,21.03
2022-10-13T12:53:08.736Z,22.65
2022-10-13T12:55:47.479Z,33.25
2022-10-13T12:58:24.175Z,24.00
2022-10-13T13:01:16.719Z,25.95
2022-10-13T13:03:44.483Z,19.83
2022-10-13T13:06:13.863Z,23.27
2022-10-13T13:08:42.717Z,31.65
2022-10-13T13:11:34.356Z,34.10
2022-10-13T13:14:38.707Z,30.63
2022-10-13T13:17:08.517Z,31.60
2022-10-13T13:19:36.059Z,41.40
2022-10-13T13:22:04.253Z,33.03
2022-10-13T13:24:39.921Z,25.33
2022-10-13T13:27:20.338Z,15.07
2022-10-13T13:29:47.537Z,19.38
2022-10-13T13:32:16.844Z,14.68
2022-10-13T13:34:44.897Z,27.15
2022-10-13T13:37:15.069Z,15.90
2022-10-13T13:39:41.678Z,13.30
2022-10-13T13:42:14.031Z,16.40
2022-10-13T13:44:40.737Z,13.55
2022-10-13T13:47:19.142Z,12.55
2022-10-13T13:49:46.827Z,11.65
2022-10-13T13:52:13.758Z,11.82
2022-10-13T13:54:40.437Z,12.90
2022-10-13T13:57:07.423Z,10.65
2022-10-13T13:59:34.217Z,15.75
2022-10-13T14:02:01.127Z,10.52
2022-10-13T14:04:27.875Z,9.73
2022-10-13T14:06:54.505Z,11.15
2022-10-13T14:09:21.151Z,13.48
2022-10-13T14:11:47.805Z,9.27
2022-10-13T14:14:14.710Z,9.15
2022-10-13T14:16:41.614Z,15.50
2022-10-13T14:19:08.852Z,9.30
2022-10-13T14:21:36.329Z,10.05
2022-10-13T14:24:03.745Z,14.02
2022-10-13T14:26:30.850Z,8.18
2022-10-13T14:28:58.257Z,8.82
2022-10-13T14:31:25.136Z,12.10
2022-10-13T14:33:54.249Z,9.63
2022-10-13T14:36:21.225Z,10.05
2022-10-13T14:38:47.930Z,9.85
2022-10-13T14:41:16.995Z,8.90
2022-10-13T14:43:43.932Z,9.00
2022-10-13T14:46:12.697Z,7.50
2022-10-13T14:48:39.712Z,6.93
2022-10-13T14:51:07.724Z,9.40
2022-10-13T14:53:36.017Z,13.73
2022-10-13T14:56:04.102Z,10.68
2022-10-13T14:58:30.752Z,7.93
2022-10-13T15:00:57.466Z,13.02
2022-10-13T15:03:24.228Z,8.45
2022-10-13T15:05:50.874Z,7.90
2022-10-13T15:08:17.525Z,11.13
2022-10-13T15:10:45.203Z,10.85
2022-10-13T15:13:12.308Z,10.50
2022-10-13T15:15:46.901Z,14.18
2022-10-13T15:18:14.534Z,9.05
2022-10-13T15:20:46.520Z,10.60
2022-10-13T15:23:15.582Z,11.60
2022-10-13T15:25:55.972Z,11.73
2022-10-13T15:28:24.354Z,8.45
2022-10-13T15:30:51.344Z,12.40
2022-10-13T15:33:19.370Z,12.68
2022-10-13T15:35:50.376Z,9.18
2022-10-13T15:38:18.615Z,8.50
2022-10-13T15:40:45.625Z,8.85
2022-10-13T15:43:12.432Z,9.75
2022-10-13T15:45:40.129Z,8.90
2022-10-13T15:48:10.217Z,13.55
2022-10-13T15:50:40.641Z,12.00
2022-10-13T15:53:08.419Z,12.45
2022-10-13T15:55:35.219Z,13.25
2022-10-13T15:58:02.851Z,13.38
2022-10-13T16:00:29.502Z,14.40
2022-10-13T16:02:56.217Z,8.85
2022-10-13T16:05:22.977Z,14.55
2022-10-13T16:07:49.862Z,11.05
2022-10-13T16:10:16.727Z,8.88
2022-10-13T16:12:48.533Z,11.20
2022-10-13T16:15:18.056Z,11.73
2022-10-13T16:17:46.248Z,12.70
2022-10-13T16:20:14.234Z,9.52
2022-10-13T16:22:40.900Z,9.68
2022-10-13T16:25:09.078Z,11.50
2022-10-13T16:27:36.919Z,12.27
2022-10-13T16:30:06.691Z,9.98
2022-10-13T16:32:38.786Z,12.60
2022-10-13T16:35:06.860Z,12.32
2022-10-13T16:37:33.924Z,12.38
2022-10-13T16:40:00.585Z,12.60
2022-10-13T16:42:28.230Z,14.18
2022-10-13T16:44:54.854Z,17.88
2022-10-13T16:47:21.684Z,13.95
2022-10-13T16:49:48.535Z,14.55
2022-10-13T16:52:15.317Z,14.13
2022-10-13T16:54:41.982Z,18.20
2022-10-13T16:57:10.667Z,16.58
2022-10-13T16:59:38.255Z,16.00
2022-10-13T17:02:04.909Z,15.57
2022-10-13T17:04:31.641Z,15.07
2022-10-13T17:06:59.309Z,16.35
2022-10-13T17:09:26.156Z,16.83
2022-10-13T17:11:54.338Z,15.65
2022-10-13T17:14:20.949Z,18.15
2022-10-13T17:16:47.690Z,16.70
2022-10-13T17:19:15.329Z,16.25
2022-10-13T17:21:43.212Z,19.15
2022-10-13T17:24:09.881Z,17.40
2022-10-13T17:26:37.633Z,15.27
2022-10-13T17:29:05.372Z,14.73
2022-10-13T17:31:32.008Z,13.95
2022-10-13T17:33:59.570Z,14.88
2022-10-13T17:36:28.257Z,15.02
2022-10-13T17:38:56.227Z,16.90
2022-10-13T17:41:24.155Z,14.25
2022-10-13T17:43:52.125Z,12.05
2022-10-13T17:46:36.271Z,13.38
2022-10-13T17:49:07.658Z,13.02
2022-10-13T17:51:34.824Z,13.52
2022-10-13T17:54:01.648Z,20.15
2022-10-13T17:56:29.986Z,12.77
2022-10-13T17:58:57.078Z,16.30
2022-10-13T18:01:34.650Z,13.45
2022-10-13T18:04:04.815Z,14.48
2022-10-13T18:06:38.706Z,15.13
2022-10-13T18:09:13.668Z,14.00
2022-10-13T18:11:47.070Z,13.15
2022-10-13T18:14:22.491Z,12.85
2022-10-13T18:16:52.217Z,13.90
2022-10-13T18:21:47.977Z,11.80
2022-10-13T18:24:20.408Z,12.15
2022-10-13T18:26:59.117Z,12.95
2022-10-13T18:29:59.525Z,12.77
2022-10-13T18:32:26.377Z,15.40
2022-10-13T18:34:56.184Z,13.43
2022-10-13T18:39:51.972Z,12.70
2022-10-13T18:42:19.866Z,11.95
2022-10-13T18:44:46.532Z,16.88
2022-10-13T18:47:13.608Z,12.50
2022-10-13T18:49:40.658Z,13.38
2022-10-13T18:52:07.687Z,14.65
2022-10-13T18:54:34.721Z,14.82
2022-10-13T18:57:01.776Z,12.15
2022-10-13T18:59:28.884Z,14.10
2022-10-13T19:01:56.023Z,13.98
2022-10-13T19:04:22.933Z,14.85
2022-10-13T19:06:50.012Z,14.13
2022-10-13T19:09:17.401Z,14.07
2022-10-13T19:11:44.353Z,15.27
2022-10-13T19:14:12.649Z,13.50
2022-10-13T19:16:41.682Z,13.82
2022-10-13T19:19:09.160Z,12.82
2022-10-13T19:21:38.672Z,14.70
2022-10-13T19:24:17.453Z,13.23
2022-10-13T19:26:46.435Z,13.47
2022-10-13T19:29:15.995Z,14.32
2022-10-13T19:31:43.378Z,12.88
2022-10-13T19:34:11.922Z,16.02
2022-10-13T19:36:44.358Z,13.73
2022-10-13T19:39:20.751Z,14.65
2022-10-13T19:41:48.845Z,14.05
2022-10-13T19:44:17.343Z,12.80
2022-10-13T19:46:45.733Z,14.23
2022-10-13T19:49:15.602Z,14.93
2022-10-13T19:51:43.647Z,13.25
2022-10-13T19:54:11.274Z,14.80
2022-10-13T19:56:38.914Z,17.02
2022-10-13T19:59:08.230Z,13.85
2022-10-13T20:01:40.980Z,13.80
2022-10-13T20:04:08.805Z,15.32
2022-10-13T20:06:36.701Z,13.45
2022-10-13T20:09:05.557Z,14.02
2022-10-13T20:11:32.425Z,14.53
2022-10-13T20:13:59.257Z,15.25
2022-10-13T20:16:26.396Z,14.45
2022-10-13T20:18:58.545Z,16.15
2022-10-13T20:21:26.836Z,18.02
2022-10-13T20:23:54.362Z,16.88
2022-10-13T20:26:21.245Z,29.17
2022-10-13T20:28:49.625Z,19.38
2022-10-13T20:31:18.428Z,22.35
2022-10-13T20:33:47.015Z,19.38
2022-10-13T20:36:16.224Z,20.23
2022-10-13T20:38:44.049Z,19.85
2022-10-13T20:41:20.789Z,21.08
2022-10-13T20:43:49.505Z,21.38
2022-10-13T20:46:19.360Z,20.55
2022-10-13T20:51:36.358Z,23.40
2022-10-13T20:54:03.250Z,21.93
2022-10-13T20:56:30.232Z,21.15
2022-10-13T20:59:02.959Z,22.85
2022-10-13T21:01:29.713Z,24.10
2022-10-13T21:03:56.801Z,21.42
2022-10-13T21:06:25.026Z,24.77
2022-10-13T21:08:52.607Z,21.75
2022-10-13T21:11:20.753Z,22.13
2022-10-13T21:13:48.774Z,21.77
2022-10-13T21:16:21.366Z,25.65
2022-10-13T21:18:51.021Z,21.40
2022-10-13T21:21:21.112Z,22.63
2022-10-13T21:23:53.077Z,21.38
2022-10-13T21:26:22.123Z,22.55
2022-10-13T21:28:50.087Z,22.55
2022-10-13T21:31:21.781Z,21.92
2022-10-13T21:33:49.508Z,24.20
2022-10-13T21:36:19.574Z,27.65
2022-10-13T21:38:47.575Z,27.17
2022-10-13T21:41:15.137Z,30.02
2022-10-13T21:43:42.158Z,32.63
2022-10-13T21:46:17.121Z,37.75
2022-10-13T21:48:45.516Z,39.35
2022-10-13T21:51:17.889Z,34.38
2022-10-13T21:53:55.256Z,35.65
2022-10-13T21:56:25.618Z,29.48
2022-10-13T21:58:52.951Z,40.47
2022-10-13T22:01:20.551Z,32.20
2022-10-13T22:03:48.696Z,28.13
2022-10-13T22:06:19.116Z,29.23
2022-10-13T22:08:48.939Z,34.50
2022-10-13T22:11:16.767Z,25.60
2022-10-13T22:13:44.058Z,26.75
2022-10-13T22:16:13.160Z,25.70
2022-10-13T22:18:39.937Z,21.90
2022-10-13T22:21:16.961Z,27.73
2022-10-13T22:23:44.880Z,22.40
2022-10-13T22:26:12.960Z,26.27
2022-10-13T22:28:40.099Z,22.98
2022-10-13T22:31:12.366Z,22.60
2022-10-13T22:33:41.022Z,21.70
2022-10-13T22:36:19.298Z,19.77
2022-10-13T22:38:47.144Z,20.25
2022-10-13T22:41:15.046Z,20.95
2022-10-13T22:43:46.666Z,18.25
2022-10-13T22:46:18.060Z,18.55
2022-10-13T22:48:45.346Z,19.42
2022-10-13T22:51:16.196Z,19.88
2022-10-13T22:53:44.336Z,17.88
2022-10-13T22:56:17.601Z,19.90
2022-10-13T22:58:48.339Z,18.73
2022-10-13T23:01:15.924Z,20.08
2022-10-13T23:03:46.201Z,20.10
2022-10-13T23:06:15.137Z,20.25
2022-10-13T23:08:42.240Z,18.50
2022-10-13T23:11:09.558Z,19.33
2022-10-13T23:13:36.876Z,19.83
2022-10-13T23:16:15.588Z,17.70
2022-10-13T23:18:43.290Z,19.20
2022-10-13T23:21:17.276Z,22.65
2022-10-13T23:23:45.997Z,16.33
2022-10-13T23:26:16.065Z,18.73
2022-10-13T23:28:43.184Z,16.67
2022-10-13T23:31:15.440Z,18.80
2022-10-13T23:33:42.828Z,17.55
2022-10-13T23:36:14.845Z,17.08
2022-10-13T23:38:41.687Z,16.50
2022-10-13T23:41:12.013Z,17.73
2022-10-13T23:43:40.065Z,18.40
2022-10-13T23:46:07.893Z,17.73
2022-10-13T23:48:34.931Z,20.52
2022-10-13T23:51:15.270Z,16.83
2022-10-13T23:53:42.879Z,18.15
2022-10-13T23:56:11.134Z,20.95
2022-10-13T23:58:40.047Z,18.77
